Time;durP1;ratioP1;P1;durP2;ratioP2;P2;SDS_P1;SDS_P2;PMS_P1;PMS_P2;Temp;Humidity;BMP_temperature;BMP_pressure;BME280_temperature;BME280_humidity;BME280_pressure;Samples;Min_cycle;Max_cycle;Signal;HPM_P1;HPM_P2
2023/01/20 00:00:37;;;;;;;4.43;2.20;;;1.00;99.90;;;;;;5113479;28;20130;-77
2023/01/20 00:03:02;;;;;;;5.10;2.37;;;1.00;99.90;;;;;;5114041;28;20143;-77
2023/01/20 00:05:28;;;;;;;7.83;2.73;;;1.00;99.90;;;;;;5113976;28;20040;-77
2023/01/20 00:07:54;;;;;;;5.43;2.77;;;1.00;99.90;;;;;;5095721;28;20047;-77
2023/01/20 00:10:19;;;;;;;6.80;3.50;;;1.00;99.90;;;;;;5112991;28;20425;-76
2023/01/20 00:12:45;;;;;;;7.83;3.30;;;0.90;99.90;;;;;;5111380;28;20040;-77
2023/01/20 00:15:11;;;;;;;6.90;3.70;;;0.90;99.90;;;;;;5113839;28;20086;-76
2023/01/20 00:17:36;;;;;;;5.97;3.67;;;0.90;99.90;;;;;;5113489;28;20051;-84
2023/01/20 00:20:04;;;;;;;8.13;4.97;;;0.90;99.90;;;;;;5113323;28;20124;-77
2023/01/20 00:22:30;;;;;;;8.50;5.00;;;0.90;99.90;;;;;;5113713;28;20051;-76
2023/01/20 00:24:55;;;;;;;7.47;4.43;;;0.90;99.90;;;;;;5113401;28;20089;-77
2023/01/20 00:27:21;;;;;;;7.50;4.67;;;0.90;99.90;;;;;;5113610;28;20047;-77
2023/01/20 00:29:47;;;;;;;6.53;4.83;;;0.90;99.90;;;;;;5112351;28;20487;-77
2023/01/20 00:32:12;;;;;;;7.63;5.20;;;0.90;99.90;;;;;;5112533;28;20086;-77
2023/01/20 00:34:38;;;;;;;8.93;5.70;;;0.90;99.90;;;;;;5113241;28;20068;-85
2023/01/20 00:37:04;;;;;;;7.07;5.33;;;0.80;99.90;;;;;;5112247;28;20044;-77
2023/01/20 00:39:30;;;;;;;8.67;6.37;;;0.80;99.90;;;;;;5113475;28;20044;-76
2023/01/20 00:41:55;;;;;;;8.63;6.40;;;0.80;99.90;;;;;;5113185;28;20173;-77
2023/01/20 00:44:21;;;;;;;9.83;7.40;;;0.80;99.90;;;;;;5112415;28;20138;-76
2023/01/20 00:46:47;;;;;;;8.57;7.20;;;0.80;99.90;;;;;;5095027;28;20062;-77
2023/01/20 00:49:12;;;;;;;14.97;9.60;;;0.80;99.90;;;;;;5113271;28;20082;-76
2023/01/20 00:51:38;;;;;;;11.17;8.43;;;0.80;99.90;;;;;;5112515;28;20044;-76
2023/01/20 00:54:04;;;;;;;14.97;9.80;;;0.70;99.90;;;;;;5113000;28;20491;-77
2023/01/20 00:56:30;;;;;;;12.83;9.70;;;0.80;99.90;;;;;;5113367;28;20165;-76
2023/01/20 00:58:55;;;;;;;11.23;8.67;;;0.80;99.90;;;;;;5112976;28;20043;-77
2023/01/20 01:01:21;;;;;;;13.43;10.20;;;0.80;99.90;;;;;;5112306;28;20533;-76
2023/01/20 01:03:47;;;;;;;12.93;10.15;;;0.80;99.90;;;;;;5112903;28;20046;-77
2023/01/20 01:06:15;;;;;;;12.17;9.63;;;0.70;99.90;;;;;;5113589;28;20043;-76
2023/01/20 01:08:41;;;;;;;13.30;10.55;;;0.70;99.90;;;;;;5095273;28;20480;-76
2023/01/20 01:11:08;;;;;;;17.38;11.43;;;0.70;99.90;;;;;;5112907;28;20052;-76
2023/01/20 01:13:36;;;;;;;12.75;10.32;;;0.70;99.90;;;;;;5113144;28;20476;-76
2023/01/20 01:16:01;;;;;;;14.52;11.02;;;0.70;99.90;;;;;;5112582;28;20579;-76
2023/01/20 01:18:27;;;;;;;16.37;11.80;;;0.70;99.90;;;;;;5113254;28;20134;-76
2023/01/20 01:20:53;;;;;;;15.20;10.17;;;0.70;99.90;;;;;;5111397;28;20058;-77
2023/01/20 01:23:18;;;;;;;15.90;11.40;;;0.60;99.90;;;;;;5112737;28;20101;-77
2023/01/20 01:25:44;;;;;;;22.20;11.40;;;0.60;99.90;;;;;;5116570;28;20043;-82
2023/01/20 01:28:10;;;;;;;17.40;11.47;;;0.70;99.90;;;;;;5115984;28;20474;-76
2023/01/20 01:30:36;;;;;;;18.83;11.83;;;0.70;99.90;;;;;;5116955;28;20083;-76
2023/01/20 01:33:01;;;;;;;15.07;11.30;;;0.70;99.90;;;;;;5116589;27;20047;-77
2023/01/20 01:35:27;;;;;;;14.43;10.73;;;0.70;99.90;;;;;;5116878;28;20059;-77
2023/01/20 01:37:53;;;;;;;14.33;10.40;;;0.70;99.90;;;;;;5116505;28;20058;-77
2023/01/20 01:40:19;;;;;;;14.17;10.77;;;0.70;99.90;;;;;;5116927;28;20052;-77
2023/01/20 01:42:44;;;;;;;15.85;11.07;;;0.70;99.90;;;;;;5115650;28;20043;-77
2023/01/20 01:45:10;;;;;;;15.40;11.20;;;0.60;99.90;;;;;;5116369;27;20051;-77
2023/01/20 01:47:43;;;;;;;13.03;9.93;;;0.60;99.90;;;;;;5116788;28;20044;-77
2023/01/20 01:50:14;;;;;;;13.50;9.48;;;0.60;99.90;;;;;;5116308;28;20043;-77
2023/01/20 01:52:44;;;;;;;14.90;10.30;;;0.70;99.90;;;;;;5116417;27;20075;-76
2023/01/20 01:55:10;;;;;;;15.55;10.27;;;0.70;99.90;;;;;;5116216;28;20055;-76
2023/01/20 01:57:36;;;;;;;14.90;9.98;;;0.60;99.90;;;;;;5116077;28;20491;-76
2023/01/20 02:00:03;;;;;;;15.43;10.63;;;0.60;99.90;;;;;;5116116;28;20045;-77
2023/01/20 02:02:29;;;;;;;14.00;9.68;;;0.60;99.90;;;;;;5116314;28;20043;-77
2023/01/20 02:04:55;;;;;;;15.13;10.93;;;0.60;99.90;;;;;;5115933;28;20099;-77
2023/01/20 02:07:20;;;;;;;14.13;9.23;;;0.60;99.90;;;;;;5116084;28;20039;-77
2023/01/20 02:09:46;;;;;;;12.73;8.97;;;0.60;99.90;;;;;;5098242;28;20082;-77
2023/01/20 02:12:19;;;;;;;13.57;8.93;;;0.50;99.90;;;;;;5115859;28;20429;-77
2023/01/20 02:14:51;;;;;;;12.98;9.80;;;0.60;99.90;;;;;;5115102;28;20134;-77
2023/01/20 02:17:44;;;;;;;14.05;9.38;;;0.60;99.90;;;;;;5116146;28;20067;-77
2023/01/20 02:20:09;;;;;;;13.25;9.45;;;0.70;99.90;;;;;;5114264;28;20094;-76
2023/01/20 02:22:54;;;;;;;13.30;9.33;;;0.60;99.90;;;;;;5114880;28;20204;-77
2023/01/20 02:25:47;;;;;;;13.27;9.55;;;0.60;99.90;;;;;;5115831;28;20043;-77
2023/01/20 02:28:34;;;;;;;12.90;9.10;;;0.60;99.90;;;;;;5114463;28;20204;-77
2023/01/20 02:31:24;;;;;;;15.02;10.65;;;0.60;99.90;;;;;;5115485;28;20055;-77
2023/01/20 02:34:15;;;;;;;14.57;9.18;;;0.60;99.90;;;;;;5115591;28;20484;-77
2023/01/20 02:36:50;;;;;;;13.48;9.68;;;0.50;99.90;;;;;;5114604;28;20048;-77
2023/01/20 02:39:36;;;;;;;14.38;10.32;;;0.60;99.90;;;;;;5113853;28;20509;-77
2023/01/20 02:42:23;;;;;;;16.00;11.25;;;0.50;99.90;;;;;;5115373;28;20442;-77
2023/01/20 02:45:01;;;;;;;15.32;10.93;;;0.50;99.90;;;;;;5115541;28;20054;-77
2023/01/20 02:47:36;;;;;;;15.60;11.40;;;0.60;99.90;;;;;;5114421;28;20063;-77
2023/01/20 02:50:08;;;;;;;13.88;10.50;;;0.50;99.90;;;;;;5115141;28;20135;-77
2023/01/20 02:52:47;;;;;;;14.43;10.50;;;0.50;99.90;;;;;;5114529;28;20055;-77
2023/01/20 02:55:24;;;;;;;17.50;12.50;;;0.50;99.90;;;;;;5115020;28;20040;-77
2023/01/20 02:57:55;;;;;;;17.70;12.35;;;0.50;99.90;;;;;;5115361;28;20087;-77
2023/01/20 03:00:27;;;;;;;17.15;13.05;;;0.60;99.90;;;;;;5115245;28;20051;-77
2023/01/20 03:02:56;;;;;;;16.90;13.18;;;0.50;99.90;;;;;;5114245;28;20055;-77
2023/01/20 03:05:27;;;;;;;18.95;13.80;;;0.50;99.90;;;;;;5115055;28;20043;-77
2023/01/20 03:07:57;;;;;;;19.02;13.27;;;0.50;99.90;;;;;;5115126;28;20051;-77
2023/01/20 03:10:24;;;;;;;16.08;12.50;;;0.50;99.90;;;;;;5113776;28;20543;-77
2023/01/20 03:13:01;;;;;;;17.67;13.88;;;0.50;99.90;;;;;;5114913;28;20126;-77
2023/01/20 03:15:35;;;;;;;19.23;14.27;;;0.60;99.90;;;;;;5114914;28;20135;-77
2023/01/20 03:18:00;;;;;;;20.98;14.73;;;0.50;99.90;;;;;;5114710;27;20130;-77
2023/01/20 03:20:26;;;;;;;21.13;15.27;;;0.50;99.90;;;;;;5114539;28;20086;-77
2023/01/20 03:22:52;;;;;;;21.23;15.50;;;0.50;99.90;;;;;;5114772;28;20044;-77
2023/01/20 03:25:19;;;;;;;21.13;14.77;;;0.50;99.90;;;;;;5114292;28;20547;-77
2023/01/20 03:27:45;;;;;;;21.08;16.08;;;0.50;99.90;;;;;;5113488;28;20079;-77
2023/01/20 03:30:15;;;;;;;23.67;16.13;;;0.60;99.90;;;;;;5114360;27;20054;-77
2023/01/20 03:32:44;;;;;;;22.90;16.13;;;0.50;99.90;;;;;;5113545;28;20055;-77
2023/01/20 03:35:12;;;;;;;22.40;16.52;;;0.50;99.90;;;;;;5114189;28;20403;-77
2023/01/20 03:37:38;;;;;;;23.17;15.65;;;0.50;99.90;;;;;;5113039;28;20052;-77
2023/01/20 03:40:04;;;;;;;24.60;16.03;;;0.40;99.90;;;;;;5114155;28;20044;-77
2023/01/20 03:42:37;;;;;;;22.98;16.73;;;0.50;99.90;;;;;;5114203;28;20460;-77
2023/01/20 03:45:13;;;;;;;24.70;16.88;;;0.40;99.90;;;;;;5114130;28;20127;-77
2023/01/20 03:47:56;;;;;;;24.73;17.05;;;0.40;99.90;;;;;;5114162;28;20067;-77
2023/01/20 03:50:36;;;;;;;23.90;16.77;;;0.40;99.90;;;;;;5114047;27;20051;-77
2023/01/20 03:53:18;;;;;;;24.75;17.13;;;0.40;99.90;;;;;;5113934;28;20421;-84
2023/01/20 03:56:15;;;;;;;27.13;18.33;;;0.40;99.90;;;;;;5114354;28;20049;-77
2023/01/20 03:58:44;;;;;;;25.88;17.98;;;0.40;99.90;;;;;;5114073;28;20464;-77
2023/01/20 04:01:12;;;;;;;24.45;18.23;;;0.40;99.90;;;;;;5113485;27;20058;-77
2023/01/20 04:03:44;;;;;;;28.25;19.20;;;0.40;99.90;;;;;;5113933;28;20047;-77
2023/01/20 04:06:13;;;;;;;29.13;19.90;;;0.30;99.90;;;;;;5113522;28;20130;-77
2023/01/20 04:08:45;;;;;;;26.45;18.75;;;0.40;99.90;;;;;;5113176;28;20044;-77
2023/01/20 04:11:11;;;;;;;27.58;20.13;;;0.40;99.90;;;;;;5113617;28;20088;-77
2023/01/20 04:13:37;;;;;;;27.67;18.83;;;0.40;99.90;;;;;;5113791;28;20132;-77
2023/01/20 04:16:08;;;;;;;27.77;19.10;;;0.30;99.90;;;;;;5112193;28;20043;-76
2023/01/20 04:18:40;;;;;;;29.40;20.30;;;0.30;99.90;;;;;;5113808;28;20092;-77
2023/01/20 04:21:11;;;;;;;33.78;20.38;;;0.30;99.90;;;;;;5113389;28;20088;-80
2023/01/20 04:23:57;;;;;;;32.50;21.13;;;0.40;99.90;;;;;;5113900;28;20140;-77
2023/01/20 04:26:23;;;;;;;34.53;20.33;;;0.50;99.90;;;;;;5113470;28;20086;-77
2023/01/20 04:28:48;;;;;;;31.37;20.20;;;0.50;99.90;;;;;;5112320;28;20144;-77
2023/01/20 04:31:14;;;;;;;35.17;22.03;;;0.60;99.90;;;;;;5094965;28;20176;-77
2023/01/20 04:33:40;;;;;;;35.43;20.60;;;0.60;99.90;;;;;;5111979;28;20040;-77
2023/01/20 04:36:06;;;;;;;40.15;22.42;;;0.60;99.90;;;;;;5113478;28;20051;-77
2023/01/20 04:38:32;;;;;;;33.50;21.35;;;0.60;99.90;;;;;;5113444;28;20066;-77
2023/01/20 04:40:57;;;;;;;33.57;20.23;;;0.70;99.90;;;;;;5112209;28;20484;-77
2023/01/20 04:43:23;;;;;;;42.43;23.27;;;0.70;99.90;;;;;;5113536;28;20044;-77
2023/01/20 04:45:49;;;;;;;38.70;21.43;;;0.70;99.90;;;;;;5112029;28;20535;-77
2023/01/20 04:48:15;;;;;;;49.77;22.57;;;0.70;99.90;;;;;;5112164;28;20048;-77
2023/01/20 04:50:40;;;;;;;49.27;22.13;;;0.70;99.90;;;;;;5113438;28;20040;-77
2023/01/20 04:53:09;;;;;;;42.10;21.33;;;0.60;99.90;;;;;;5113342;28;20040;-77
2023/01/20 04:55:35;;;;;;;68.97;23.63;;;0.80;99.90;;;;;;5113386;28;20079;-77
2023/01/20 04:58:01;;;;;;;46.87;22.30;;;0.80;99.90;;;;;;5113468;28;20404;-77
2023/01/20 05:00:27;;;;;;;64.97;22.83;;;0.80;99.90;;;;;;5116345;28;20040;-77
2023/01/20 05:02:57;;;;;;;48.55;22.60;;;0.80;99.90;;;;;;5116632;28;20127;-76
2023/01/20 05:05:23;;;;;;;75.95;23.67;;;0.80;99.90;;;;;;5117165;28;20449;-77
2023/01/20 05:07:52;;;;;;;75.03;23.58;;;0.80;99.90;;;;;;5117555;28;20051;-76
2023/01/20 05:10:18;;;;;;;53.20;24.20;;;0.80;99.90;;;;;;5117090;28;20399;-77
2023/01/20 05:12:43;;;;;;;56.33;23.03;;;0.80;99.90;;;;;;5117493;28;20036;-77
2023/01/20 05:15:09;;;;;;;85.90;24.97;;;0.80;99.90;;;;;;5117327;27;20495;-77
2023/01/20 05:17:35;;;;;;;51.95;23.25;;;0.80;99.90;;;;;;5116933;28;20044;-77
2023/01/20 05:20:01;;;;;;;81.40;24.37;;;0.80;99.90;;;;;;5115991;28;20075;-76
2023/01/20 05:22:28;;;;;;;61.47;24.67;;;0.80;99.90;;;;;;5115584;28;20054;-77
2023/01/20 05:24:54;;;;;;;67.35;23.80;;;0.90;99.90;;;;;;5115997;28;20286;-77
2023/01/20 05:27:19;;;;;;;72.57;24.47;;;0.90;99.90;;;;;;5116749;28;20044;-77
2023/01/20 05:29:45;;;;;;;68.73;24.67;;;0.90;99.90;;;;;;5117229;28;20048;-77
2023/01/20 05:32:11;;;;;;;48.20;23.27;;;0.80;99.90;;;;;;5116989;28;20092;-77
2023/01/20 05:34:36;;;;;;;45.67;21.73;;;1.00;99.90;;;;;;5116505;28;20479;-77
2023/01/20 05:37:02;;;;;;;44.00;22.50;;;0.90;99.90;;;;;;5115822;28;20387;-77
2023/01/20 05:39:28;;;;;;;97.17;24.87;;;0.90;99.90;;;;;;5116459;28;20055;-77
2023/01/20 05:41:53;;;;;;;53.97;23.23;;;0.90;99.90;;;;;;5117036;28;20134;-77
2023/01/20 05:44:19;;;;;;;45.70;22.97;;;0.90;99.90;;;;;;5116420;28;20467;-77
2023/01/20 05:46:45;;;;;;;63.77;25.00;;;0.90;99.90;;;;;;5115789;28;20474;-77
2023/01/20 05:49:11;;;;;;;42.07;21.67;;;0.90;99.90;;;;;;5116672;28;20094;-77
2023/01/20 05:51:37;;;;;;;46.85;23.27;;;0.90;99.90;;;;;;5116389;27;20063;-77
2023/01/20 05:54:03;;;;;;;55.93;22.97;;;1.00;99.90;;;;;;5115333;28;20044;-77
2023/01/20 05:56:28;;;;;;;51.73;23.90;;;0.90;99.90;;;;;;5116214;28;20051;-77
2023/01/20 05:58:55;;;;;;;49.63;25.00;;;0.90;99.90;;;;;;5116740;28;20051;-77
2023/01/20 06:01:21;;;;;;;46.58;23.33;;;0.90;99.90;;;;;;5116159;28;20035;-77
2023/01/20 06:03:47;;;;;;;47.60;24.65;;;1.00;99.90;;;;;;5116590;28;20040;-77
2023/01/20 06:06:14;;;;;;;50.63;25.73;;;0.90;99.90;;;;;;5116147;28;20044;-77
2023/01/20 06:08:40;;;;;;;46.08;23.83;;;0.90;99.90;;;;;;5115843;28;20048;-77
2023/01/20 06:11:06;;;;;;;50.08;24.42;;;0.90;99.90;;;;;;5116342;28;20437;-77
2023/01/20 06:13:34;;;;;;;42.80;23.67;;;0.90;99.90;;;;;;5115803;28;20043;-76
2023/01/20 06:16:00;;;;;;;49.10;25.65;;;0.90;99.90;;;;;;5116109;28;20051;-76
2023/01/20 06:18:25;;;;;;;45.90;23.90;;;0.90;99.90;;;;;;5115477;28;20075;-77
2023/01/20 06:20:55;;;;;;;51.10;25.40;;;0.90;99.90;;;;;;5115628;28;20116;-77
2023/01/20 06:23:21;;;;;;;46.25;24.58;;;0.80;99.90;;;;;;5115736;28;20126;-77
2023/01/20 06:25:46;;;;;;;48.10;26.03;;;0.90;99.90;;;;;;5115826;28;20151;-77
2023/01/20 06:28:12;;;;;;;56.47;26.07;;;0.90;99.90;;;;;;5114756;28;20047;-77
2023/01/20 06:30:39;;;;;;;51.53;26.70;;;0.90;99.90;;;;;;5115563;28;20134;-77
2023/01/20 06:33:09;;;;;;;46.20;26.45;;;0.80;99.90;;;;;;5115729;28;20497;-76
2023/01/20 06:35:35;;;;;;;49.60;26.60;;;0.90;99.90;;;;;;5115504;28;20051;-76
2023/01/20 06:38:01;;;;;;;51.92;27.45;;;0.90;99.90;;;;;;5114638;28;20079;-76
2023/01/20 06:40:27;;;;;;;50.87;26.80;;;0.80;99.90;;;;;;5114243;28;20089;-76
2023/01/20 06:42:53;;;;;;;45.23;27.53;;;0.80;99.90;;;;;;5115612;28;20108;-76
2023/01/20 06:45:18;;;;;;;48.73;26.73;;;0.90;99.90;;;;;;5115547;27;20097;-77
2023/01/20 06:47:48;;;;;;;54.93;28.30;;;0.90;99.90;;;;;;5115034;28;20046;-77
2023/01/20 06:50:14;;;;;;;64.22;36.70;;;1.00;99.90;;;;;;5115451;28;20059;-77
2023/01/20 06:52:40;;;;;;;58.33;31.05;;;0.90;99.90;;;;;;5115164;27;20036;-77
2023/01/20 06:55:06;;;;;;;53.80;29.20;;;1.00;99.90;;;;;;5115531;28;20475;-77
2023/01/20 06:57:32;;;;;;;64.78;31.50;;;1.00;99.90;;;;;;5115100;28;20107;-77
2023/01/20 06:59:58;;;;;;;68.10;36.60;;;1.00;99.90;;;;;;5114109;28;20047;-77
2023/01/20 07:02:24;;;;;;;60.43;31.93;;;1.00;99.90;;;;;;5115139;28;20052;-83
2023/01/20 07:04:52;;;;;;;63.30;32.75;;;1.10;99.90;;;;;;5115176;28;20274;-77
2023/01/20 07:07:18;;;;;;;61.55;31.88;;;1.10;99.90;;;;;;5113518;28;20048;-76
2023/01/20 07:09:44;;;;;;;69.20;39.57;;;1.10;99.90;;;;;;5114739;28;20704;-77
2023/01/20 07:12:09;;;;;;;63.87;35.00;;;1.00;99.90;;;;;;5114946;28;20070;-76
2023/01/20 07:14:35;;;;;;;67.63;35.70;;;1.00;99.90;;;;;;5113375;28;20136;-77
2023/01/20 07:17:01;;;;;;;63.53;32.87;;;1.10;99.90;;;;;;5114864;28;20374;-77
2023/01/20 07:19:26;;;;;;;66.50;32.83;;;1.00;99.90;;;;;;5114638;28;20044;-81
2023/01/20 07:21:52;;;;;;;68.80;34.43;;;1.10;99.90;;;;;;5114252;28;20052;-77
2023/01/20 07:24:18;;;;;;;65.43;32.87;;;1.10;99.90;;;;;;5096736;28;20124;-77
2023/01/20 07:26:43;;;;;;;66.00;32.20;;;1.10;99.90;;;;;;5114363;28;20070;-77
2023/01/20 07:29:09;;;;;;;68.30;33.67;;;1.10;99.90;;;;;;5113715;28;20051;-77
2023/01/20 07:31:35;;;;;;;71.97;34.33;;;1.10;99.90;;;;;;5114340;28;20078;-77
2023/01/20 07:34:01;;;;;;;71.20;34.60;;;1.10;99.90;;;;;;5114770;28;20458;-77
2023/01/20 07:36:27;;;;;;;63.78;33.70;;;1.10;99.90;;;;;;5114684;28;20039;-77
2023/01/20 07:38:52;;;;;;;69.13;34.42;;;1.10;99.90;;;;;;5113881;28;20552;-77
2023/01/20 07:41:19;;;;;;;69.33;34.23;;;1.10;99.90;;;;;;5114127;28;20043;-77
2023/01/20 07:43:47;;;;;;;73.10;36.15;;;1.10;99.90;;;;;;5114077;28;20044;-77
2023/01/20 07:46:13;;;;;;;80.65;41.65;;;1.10;99.90;;;;;;5114333;28;20398;-77
2023/01/20 07:48:38;;;;;;;72.68;35.45;;;1.10;99.90;;;;;;5113959;28;20126;-77
2023/01/20 07:51:06;;;;;;;72.33;35.30;;;1.10;99.90;;;;;;5114201;27;20039;-77
2023/01/20 07:53:41;;;;;;;68.80;34.13;;;1.20;99.90;;;;;;5112803;28;20043;-78
2023/01/20 07:56:11;;;;;;;72.75;35.40;;;1.20;99.90;;;;;;5114266;28;20057;-77
2023/01/20 07:58:37;;;;;;;69.30;33.15;;;1.20;99.90;;;;;;5114043;28;20400;-77
2023/01/20 08:01:12;;;;;;;79.75;34.55;;;1.20;99.90;;;;;;5113186;28;20035;-77
2023/01/20 08:03:38;;;;;;;65.65;32.90;;;1.10;99.90;;;;;;5113816;28;20079;-77
2023/01/20 08:06:09;;;;;;;76.73;35.30;;;1.20;99.90;;;;;;5113846;28;20074;-77
2023/01/20 08:08:35;;;;;;;70.88;36.17;;;1.20;99.90;;;;;;5112725;28;20043;-77
2023/01/20 08:11:02;;;;;;;79.23;41.30;;;1.20;99.90;;;;;;5113910;28;20399;-77
2023/01/20 08:13:28;;;;;;;69.70;35.67;;;1.20;99.90;;;;;;5113737;28;20486;-77
2023/01/20 08:15:54;;;;;;;73.50;35.00;;;1.20;99.90;;;;;;5113236;28;20503;-77
2023/01/20 08:18:20;;;;;;;70.45;35.90;;;1.30;99.90;;;;;;5113833;28;20043;-77
2023/01/20 08:20:46;;;;;;;75.80;37.38;;;1.30;99.90;;;;;;5113066;28;20058;-77
2023/01/20 08:23:12;;;;;;;76.93;35.50;;;1.30;99.90;;;;;;5113675;28;20040;-77
2023/01/20 08:25:38;;;;;;;83.50;38.53;;;1.30;99.90;;;;;;5095524;28;20090;-81
2023/01/20 08:28:03;;;;;;;72.50;34.10;;;1.40;99.90;;;;;;5113008;28;20404;-75
2023/01/20 08:30:29;;;;;;;67.93;34.73;;;1.30;99.90;;;;;;5113284;28;20455;-77
2023/01/20 08:32:55;;;;;;;74.27;38.20;;;1.30;99.90;;;;;;5111660;28;20051;-77
2023/01/20 08:35:21;;;;;;;69.70;34.57;;;1.30;99.90;;;;;;5112375;28;20467;-76
2023/01/20 08:37:46;;;;;;;78.23;38.10;;;1.30;99.90;;;;;;5113161;28;20050;-76
2023/01/20 08:40:12;;;;;;;79.00;35.67;;;1.30;99.90;;;;;;5113117;28;20050;-73
2023/01/20 08:42:39;;;;;;;68.45;33.50;;;1.30;99.90;;;;;;5113242;28;20043;-74
2023/01/20 08:45:07;;;;;;;136.25;57.00;;;1.30;99.90;;;;;;5113112;28;20484;-73
2023/01/20 08:47:43;;;;;;;99.90;45.55;;;1.30;99.90;;;;;;5111963;28;20051;-73
2023/01/20 08:50:10;;;;;;;81.32;41.85;;;1.30;99.90;;;;;;5113681;28;20082;-73
2023/01/20 08:52:36;;;;;;;93.78;45.45;;;1.40;99.90;;;;;;5113255;28;20047;-83
2023/01/20 08:55:02;;;;;;;75.30;35.27;;;1.30;99.90;;;;;;5113425;28;20456;-73
2023/01/20 08:57:28;;;;;;;69.13;32.03;;;1.40;99.90;;;;;;5112208;28;20048;-73
2023/01/20 08:59:54;;;;;;;69.07;33.80;;;1.30;99.90;;;;;;5113156;28;20057;-73
2023/01/20 09:02:22;;;;;;;64.35;31.50;;;1.40;99.90;;;;;;5113512;28;20367;-73
2023/01/20 09:04:49;;;;;;;63.33;29.92;;;1.40;99.90;;;;;;5113026;28;20054;-73
2023/01/20 09:07:16;;;;;;;65.85;31.85;;;1.40;99.90;;;;;;5113291;28;20052;-73
2023/01/20 09:09:42;;;;;;;63.33;30.98;;;1.30;99.90;;;;;;5112079;28;20051;-74
2023/01/20 09:12:08;;;;;;;71.70;34.97;;;1.40;99.90;;;;;;5113268;28;20087;-73
2023/01/20 09:14:33;;;;;;;73.60;36.10;;;1.40;99.90;;;;;;5113039;28;20449;-73
2023/01/20 09:17:01;;;;;;;87.07;44.33;;;1.40;99.90;;;;;;5112873;28;20134;-73
2023/01/20 09:19:29;;;;;;;86.03;42.90;;;1.40;99.90;;;;;;5113231;28;20047;-73
2023/01/20 09:21:55;;;;;;;76.82;40.13;;;1.50;99.90;;;;;;5112562;28;20441;-73
2023/01/20 09:24:21;;;;;;;68.63;31.77;;;1.50;99.90;;;;;;5113200;28;20046;-73
2023/01/20 09:26:48;;;;;;;88.40;45.57;;;1.50;99.90;;;;;;5112831;28;20379;-74
2023/01/20 09:29:16;;;;;;;85.40;42.97;;;1.50;99.90;;;;;;5113098;28;20073;-73
2023/01/20 09:31:49;;;;;;;126.45;60.72;;;1.60;99.90;;;;;;5112804;28;20047;-76
2023/01/20 09:34:26;;;;;;;81.88;40.45;;;1.50;99.90;;;;;;5113063;28;20039;-73
2023/01/20 09:36:57;;;;;;;67.07;32.95;;;1.50;99.90;;;;;;5112935;28;20127;-74
2023/01/20 09:45:29;;;;;;;138.73;55.95;;;1.50;99.90;;;;;;5114282;28;20130;-73
2023/01/20 09:54:01;;;;;;;65.32;31.50;;;1.60;99.90;;;;;;5116572;28;20048;-75
2023/01/20 09:56:29;;;;;;;69.38;33.17;;;1.50;99.90;;;;;;5116902;28;20474;-74
2023/01/20 09:59:09;;;;;;;71.53;33.63;;;1.50;99.90;;;;;;5116353;28;20050;-76
2023/01/20 10:01:51;;;;;;;67.78;30.75;;;1.60;99.90;;;;;;5115822;28;20535;-76
2023/01/20 10:04:44;;;;;;;63.60;30.92;;;1.60;99.90;;;;;;5116159;28;20035;-76
2023/01/20 10:07:32;;;;;;;63.38;30.58;;;1.60;99.90;;;;;;5113860;28;20122;-77
2023/01/20 10:10:06;;;;;;;65.53;30.98;;;1.60;99.90;;;;;;5111772;28;20127;-77
2023/01/20 10:12:43;;;;;;;64.68;31.08;;;1.60;99.90;;;;;;5115889;28;20043;-77
2023/01/20 10:15:17;;;;;;;68.53;31.02;;;1.70;99.90;;;;;;5113327;28;20488;-77
2023/01/20 10:18:06;;;;;;;71.22;31.45;;;1.70;99.90;;;;;;5112566;28;20051;-76
2023/01/20 10:20:44;;;;;;;66.28;32.83;;;1.70;99.90;;;;;;5114459;28;20097;-77
2023/01/20 10:23:44;;;;;;;62.03;31.65;;;1.70;99.90;;;;;;5112624;28;20048;-77
2023/01/20 10:26:41;;;;;;;66.18;30.55;;;1.70;99.90;;;;;;5113802;28;20552;-78
2023/01/20 10:29:15;;;;;;;77.03;33.13;;;1.70;99.90;;;;;;5113631;28;20048;-76
2023/01/20 10:31:57;;;;;;;87.15;42.65;;;1.70;99.90;;;;;;5112880;27;20122;-78
2023/01/20 10:34:30;;;;;;;65.57;32.08;;;1.70;99.90;;;;;;5114846;28;20040;-77
2023/01/20 10:37:05;;;;;;;73.25;36.42;;;1.80;99.90;;;;;;5115077;28;20055;-77
2023/01/20 10:39:46;;;;;;;67.55;32.28;;;1.70;99.90;;;;;;5113479;28;20048;-76
2023/01/20 10:42:15;;;;;;;62.35;30.15;;;1.80;99.90;;;;;;5115389;28;20122;-76
2023/01/20 10:44:41;;;;;;;66.50;36.17;;;1.70;99.90;;;;;;5115482;28;20075;-76
2023/01/20 10:47:41;;;;;;;65.55;35.75;;;1.80;99.90;;;;;;5115125;28;20047;-75
2023/01/20 10:50:19;;;;;;;61.30;31.27;;;1.80;99.90;;;;;;5115033;28;20513;-75
2023/01/20 10:53:09;;;;;;;64.55;35.25;;;1.90;99.90;;;;;;5100699;28;20072;-77
2023/01/20 10:55:50;;;;;;;67.38;32.03;;;1.90;99.90;;;;;;5094116;28;20154;-77
2023/01/20 10:58:23;;;;;;;60.38;31.70;;;1.80;99.90;;;;;;5094361;28;20048;-77
2023/01/20 11:00:48;;;;;;;84.47;52.22;;;1.90;99.90;;;;;;5094948;28;20055;-75
2023/01/20 11:03:18;;;;;;;64.40;34.60;;;1.90;99.90;;;;;;5094802;28;20040;-76
2023/01/20 11:05:45;;;;;;;69.50;35.28;;;1.90;99.90;;;;;;5093414;28;20043;-77
2023/01/20 11:08:30;;;;;;;57.03;31.00;;;1.90;99.90;;;;;;5094506;28;20534;-80
2023/01/20 11:11:08;;;;;;;62.83;32.70;;;2.00;99.90;;;;;;5094555;28;20058;-80
2023/01/20 11:13:34;;;;;;;62.97;32.90;;;2.00;99.90;;;;;;5112675;28;20402;-74
2023/01/20 11:16:06;;;;;;;57.80;29.23;;;2.00;99.90;;;;;;5114671;28;20122;-81
2023/01/20 11:18:32;;;;;;;59.45;30.58;;;2.00;99.90;;;;;;5113892;28;20065;-82
2023/01/20 11:21:11;;;;;;;54.45;28.83;;;2.00;99.90;;;;;;5114123;28;20059;-79
2023/01/20 11:23:51;;;;;;;56.40;30.20;;;2.00;99.90;;;;;;5115044;28;20047;-79
2023/01/20 11:26:23;;;;;;;55.10;28.77;;;2.10;99.90;;;;;;5112806;28;20035;-82
2023/01/20 11:29:09;;;;;;;49.78;27.38;;;2.10;99.90;;;;;;5114183;28;20115;-82
2023/01/20 11:31:40;;;;;;;51.40;27.02;;;2.10;99.90;;;;;;5120256;27;20054;-82
2023/01/20 11:34:26;;;;;;;51.85;26.67;;;2.10;99.90;;;;;;5113905;28;20136;-82
2023/01/20 11:37:04;;;;;;;51.45;27.38;;;2.10;99.90;;;;;;5120899;27;20046;-82
2023/01/20 11:39:34;;;;;;;46.83;25.45;;;2.10;99.90;;;;;;5112756;28;20086;-81
2023/01/20 11:42:24;;;;;;;49.58;25.17;;;2.10;99.90;;;;;;5110221;28;20067;-81
2023/01/20 11:44:52;;;;;;;44.30;24.50;;;2.20;99.90;;;;;;5112403;28;20480;-81
2023/01/20 11:47:25;;;;;;;53.13;26.50;;;2.10;99.90;;;;;;5113247;28;20495;-83
2023/01/20 11:50:03;;;;;;;46.10;26.80;;;2.10;99.90;;;;;;5096040;28;20051;-78
2023/01/20 11:52:45;;;;;;;47.75;27.02;;;2.10;99.90;;;;;;5112028;28;20043;-78
2023/01/20 11:55:11;;;;;;;46.00;28.02;;;2.10;99.90;;;;;;5112564;28;20051;-79
2023/01/20 11:57:47;;;;;;;50.27;28.53;;;2.10;99.90;;;;;;5112826;28;20056;-78
2023/01/20 12:00:39;;;;;;;46.72;26.25;;;2.10;99.90;;;;;;5112274;28;20130;-74
2023/01/20 12:03:42;;;;;;;45.50;25.13;;;2.20;99.90;;;;;;5104658;28;20051;-79
2023/01/20 12:06:17;;;;;;;45.10;24.95;;;2.20;99.90;;;;;;5111480;28;20047;-77
2023/01/20 12:08:50;;;;;;;47.00;24.05;;;2.20;99.90;;;;;;5110761;28;20079;-76
2023/01/20 12:11:29;;;;;;;42.03;23.00;;;2.10;99.90;;;;;;5112438;28;20054;-77
2023/01/20 12:14:24;;;;;;;43.38;24.05;;;2.10;99.90;;;;;;5113856;28;20122;-76
2023/01/20 12:17:09;;;;;;;46.75;23.10;;;2.10;99.90;;;;;;5114007;28;20103;-77
2023/01/20 12:20:00;;;;;;;41.75;23.88;;;2.10;99.90;;;;;;5113771;28;20514;-76
2023/01/20 12:22:40;;;;;;;41.78;23.35;;;2.10;99.90;;;;;;5113108;28;20056;-76
2023/01/20 12:25:28;;;;;;;45.45;24.08;;;2.10;99.90;;;;;;5113502;28;20472;-77
2023/01/20 12:28:19;;;;;;;43.53;24.00;;;2.10;99.90;;;;;;5112882;28;20050;-77
2023/01/20 12:30:55;;;;;;;43.67;23.50;;;2.10;99.90;;;;;;5113847;28;20460;-77
2023/01/20 12:33:24;;;;;;;39.10;21.52;;;2.20;99.90;;;;;;5113346;28;20062;-78
2023/01/20 12:36:06;;;;;;;43.97;23.90;;;2.20;99.90;;;;;;5113620;28;20050;-79
2023/01/20 12:38:55;;;;;;;36.65;19.83;;;2.20;99.90;;;;;;5113609;28;20047;-79
2023/01/20 12:41:39;;;;;;;35.20;19.67;;;2.20;99.90;;;;;;5113319;28;20052;-79
2023/01/20 12:44:32;;;;;;;43.50;21.67;;;2.20;99.90;;;;;;5113010;28;20547;-80
2023/01/20 12:47:17;;;;;;;38.17;21.00;;;2.20;99.90;;;;;;5113589;28;20048;-73
2023/01/20 12:50:08;;;;;;;40.17;21.05;;;2.30;99.90;;;;;;5113400;28;20050;-80
2023/01/20 12:52:55;;;;;;;38.03;21.90;;;2.30;99.90;;;;;;5112944;28;20136;-77
2023/01/20 12:55:43;;;;;;;35.22;19.60;;;2.30;99.90;;;;;;5113165;28;20048;-77
2023/01/20 12:58:18;;;;;;;38.70;19.50;;;2.30;99.90;;;;;;5113258;28;20082;-77
2023/01/20 13:01:11;;;;;;;33.17;19.08;;;2.30;99.90;;;;;;5113414;28;20051;-76
2023/01/20 13:03:54;;;;;;;34.33;19.90;;;2.30;99.90;;;;;;5113444;28;20083;-76
2023/01/20 13:06:44;;;;;;;37.67;21.70;;;2.30;99.90;;;;;;5111916;28;20131;-76
2023/01/20 13:09:28;;;;;;;33.15;20.13;;;2.30;99.90;;;;;;5111985;28;20130;-78